createdAt,value
2018-08-25T00:00:26.106Z,998.45
2018-08-25T00:01:26.079Z,998.44
2018-08-25T00:02:26.058Z,998.38
2018-08-25T00:03:26.054Z,998.41
2018-08-25T00:04:26.037Z,998.40
2018-08-25T00:05:26.055Z,998.32
2018-08-25T00:06:26.016Z,998.37
2018-08-25T00:07:26.006Z,998.38
2018-08-25T00:08:25.996Z,998.33
2018-08-25T00:09:25.981Z,998.28
2018-08-25T00:10:25.996Z,998.31
2018-08-25T00:11:25.963Z,998.33
2018-08-25T00:12:25.945Z,998.31
2018-08-25T00:13:25.939Z,998.31
2018-08-25T00:14:25.922Z,998.19
2018-08-25T00:15:25.932Z,998.31
2018-08-25T00:16:25.906Z,998.25
2018-08-25T00:17:25.885Z,998.26
2018-08-25T00:18:25.883Z,998.27
2018-08-25T00:19:25.862Z,998.24
2018-08-25T00:20:25.876Z,998.22
2018-08-25T00:21:25.847Z,998.20
2018-08-25T00:22:25.830Z,998.11
2018-08-25T00:23:25.819Z,998.13
2018-08-25T00:24:25.812Z,998.11
2018-08-25T00:25:25.823Z,998.05
2018-08-25T00:26:25.785Z,998.00
2018-08-25T00:27:25.777Z,997.94
2018-08-25T00:28:25.757Z,997.92
2018-08-25T00:29:25.754Z,997.95
2018-08-25T00:30:25.756Z,997.95
2018-08-25T00:31:25.722Z,997.95
2018-08-25T00:32:25.719Z,997.94
2018-08-25T00:33:25.700Z,997.97
2018-08-25T00:34:25.697Z,997.93
2018-08-25T00:35:25.702Z,997.92
2018-08-25T00:36:25.664Z,997.94
2018-08-25T00:37:25.654Z,997.86
2018-08-25T00:38:25.647Z,997.83
2018-08-25T00:39:25.630Z,997.85
2018-08-25T00:40:25.650Z,997.78
2018-08-25T00:41:25.606Z,997.82
2018-08-25T00:42:25.598Z,997.83
2018-08-25T00:43:25.589Z,997.83
2018-08-25T00:44:25.574Z,997.86
2018-08-25T00:45:25.591Z,997.80
2018-08-25T00:46:25.557Z,997.84
2018-08-25T00:47:25.539Z,997.79
2018-08-25T00:48:25.530Z,997.83
2018-08-25T00:49:25.522Z,997.82
2018-08-25T00:50:25.524Z,997.82
2018-08-25T00:51:25.499Z,997.76
2018-08-25T00:52:25.482Z,997.85
2018-08-25T00:53:25.466Z,997.73
2018-08-25T00:54:25.459Z,997.75
2018-08-25T00:55:25.483Z,997.75
2018-08-25T00:56:25.437Z,997.72
2018-08-25T00:57:25.447Z,997.70
2018-08-25T00:58:25.415Z,997.70
2018-08-25T00:59:25.553Z,997.57
2018-08-25T01:00:25.391Z,997.58
2018-08-25T01:01:25.406Z,997.59
2018-08-25T01:02:25.362Z,997.57
2018-08-25T01:03:25.350Z,997.58
2018-08-25T01:04:25.352Z,997.56
2018-08-25T01:05:25.362Z,997.54
2018-08-25T01:06:25.317Z,997.56
2018-08-25T01:07:25.313Z,997.58
2018-08-25T01:08:25.293Z,997.55
2018-08-25T01:09:25.291Z,997.53
2018-08-25T01:10:25.274Z,997.53
2018-08-25T01:11:25.285Z,997.53
2018-08-25T01:12:25.256Z,997.53
2018-08-25T01:13:25.239Z,997.53
2018-08-25T01:14:25.230Z,997.47
2018-08-25T01:15:25.214Z,997.50
2018-08-25T01:16:25.232Z,997.45
2018-08-25T01:17:25.187Z,997.41
2018-08-25T01:18:25.193Z,997.44
2018-08-25T01:19:25.167Z,997.43
2018-08-25T01:20:25.165Z,997.42
2018-08-25T01:21:25.168Z,997.37
2018-08-25T01:22:25.140Z,997.33
2018-08-25T01:23:25.128Z,997.35
2018-08-25T01:24:25.109Z,997.35
2018-08-25T01:25:25.135Z,997.36
2018-08-25T01:26:25.083Z,997.32
2018-08-25T01:27:25.077Z,997.34
2018-08-25T01:28:25.062Z,997.35
2018-08-25T01:29:25.054Z,997.40
2018-08-25T01:30:25.040Z,997.37
2018-08-25T01:31:25.048Z,997.35
2018-08-25T01:32:25.015Z,997.31
2018-08-25T01:33:25.006Z,997.38
2018-08-25T01:34:24.993Z,997.28
2018-08-25T01:35:24.991Z,997.33
2018-08-25T01:36:24.990Z,997.28
2018-08-25T01:37:24.957Z,997.27
2018-08-25T01:38:24.943Z,997.22
2018-08-25T01:39:24.933Z,997.27
2018-08-25T01:40:24.929Z,997.26
2018-08-25T01:41:24.938Z,997.16
2018-08-25T01:42:24.906Z,997.24
2018-08-25T01:43:24.889Z,997.11
2018-08-25T01:44:24.880Z,997.10
2018-08-25T01:45:24.865Z,997.13
2018-08-25T01:46:24.876Z,997.09
2018-08-25T01:47:24.848Z,997.08
2018-08-25T01:48:24.832Z,997.05
2018-08-25T01:49:24.818Z,997.09
2018-08-25T01:50:24.808Z,997.13
2018-08-25T01:51:24.814Z,997.09
2018-08-25T01:52:24.810Z,997.10
2018-08-25T01:53:24.772Z,997.05
2018-08-25T01:54:24.765Z,997.04
2018-08-25T01:55:24.747Z,997.06
2018-08-25T01:56:24.762Z,997.08
2018-08-25T01:57:24.725Z,996.95
2018-08-25T01:58:24.715Z,996.95
2018-08-25T01:59:24.704Z,996.96
2018-08-25T02:00:24.691Z,996.93
2018-08-25T02:01:24.703Z,996.93
2018-08-25T02:02:24.665Z,996.93
2018-08-25T02:03:24.657Z,996.92
2018-08-25T02:04:24.648Z,996.87
2018-08-25T02:05:24.634Z,996.91
2018-08-25T02:06:24.653Z,996.92
2018-08-25T02:07:24.613Z,996.83
2018-08-25T02:08:24.593Z,996.78
2018-08-25T02:09:24.584Z,996.84
2018-08-25T02:10:24.575Z,996.77
2018-08-25T02:11:24.596Z,996.80
2018-08-25T02:12:24.548Z,996.79
2018-08-25T02:13:24.534Z,996.83
2018-08-25T02:14:24.532Z,996.76
2018-08-25T02:15:24.515Z,996.79
2018-08-25T02:16:24.505Z,996.72
2018-08-25T02:17:24.524Z,996.70
2018-08-25T02:18:24.477Z,996.72
2018-08-25T02:19:24.469Z,996.66
2018-08-25T02:20:24.454Z,996.69
2018-08-25T02:21:24.453Z,996.65
2018-08-25T02:22:24.458Z,996.67
2018-08-25T02:23:24.420Z,996.62
2018-08-25T02:24:24.416Z,996.62
2018-08-25T02:25:24.399Z,996.60
2018-08-25T02:26:24.394Z,996.58
2018-08-25T02:27:24.404Z,996.51
2018-08-25T02:28:24.361Z,996.54
2018-08-25T02:29:24.361Z,996.61
2018-08-25T02:30:24.338Z,996.51
2018-08-25T02:31:24.334Z,996.50
2018-08-25T02:32:24.340Z,996.48
2018-08-25T02:33:24.308Z,996.46
2018-08-25T02:34:24.293Z,996.55
2018-08-25T02:35:24.285Z,996.49
2018-08-25T02:36:24.275Z,996.42
2018-08-25T02:37:24.280Z,996.44
2018-08-25T02:38:24.260Z,996.44
2018-08-25T02:39:24.235Z,996.44
2018-08-25T02:40:24.228Z,996.42
2018-08-25T02:41:24.215Z,996.41
2018-08-25T02:42:24.225Z,996.40
2018-08-25T02:43:24.186Z,996.47
2018-08-25T02:44:24.182Z,996.41
2018-08-25T02:45:24.168Z,996.41
2018-08-25T02:46:24.157Z,996.39
2018-08-25T02:47:24.166Z,996.36
2018-08-25T02:48:24.131Z,996.34
2018-08-25T02:49:24.125Z,996.35
2018-08-25T02:50:24.105Z,996.34
2018-08-25T02:51:24.100Z,996.30
2018-08-25T02:52:24.110Z,996.35
2018-08-25T02:53:24.075Z,996.27
2018-08-25T02:54:24.063Z,996.31
2018-08-25T02:55:24.045Z,996.32
2018-08-25T02:56:24.045Z,996.29
2018-08-25T02:57:24.044Z,996.27
2018-08-25T02:58:24.019Z,996.25
2018-08-25T02:59:24.004Z,996.17
2018-08-25T03:00:23.998Z,996.21
2018-08-25T03:01:23.985Z,996.25
2018-08-25T03:02:23.988Z,996.21
2018-08-25T03:03:23.957Z,996.17
2018-08-25T03:04:23.943Z,996.18
2018-08-25T03:05:23.929Z,996.13
2018-08-25T03:06:23.925Z,996.15
2018-08-25T03:07:23.936Z,996.15
2018-08-25T03:08:23.896Z,996.07
2018-08-25T03:09:23.881Z,996.04
2018-08-25T03:10:23.879Z,996.01
2018-08-25T03:11:23.860Z,996.02
2018-08-25T03:12:23.880Z,995.96
2018-08-25T03:13:23.842Z,995.92
2018-08-25T03:14:23.822Z,995.92
2018-08-25T03:15:23.816Z,996.00
2018-08-25T03:16:23.802Z,995.91
2018-08-25T03:17:23.814Z,995.91
2018-08-25T03:18:23.776Z,995.95
2018-08-25T03:19:23.765Z,995.93
2018-08-25T03:20:23.755Z,995.92
2018-08-25T03:21:23.740Z,995.86
2018-08-25T03:22:23.755Z,995.88
2018-08-25T03:23:23.719Z,995.89
2018-08-25T03:24:23.706Z,995.91
2018-08-25T03:25:23.697Z,995.87
2018-08-25T03:26:23.676Z,995.94
2018-08-25T03:27:23.671Z,995.84
2018-08-25T03:28:23.679Z,995.78
2018-08-25T03:29:23.639Z,995.80
2018-08-25T03:30:23.637Z,995.79
2018-08-25T03:31:23.619Z,995.85
2018-08-25T03:32:23.609Z,995.84
2018-08-25T03:33:23.619Z,995.80
2018-08-25T03:34:23.586Z,995.86
2018-08-25T03:35:23.569Z,995.84
2018-08-25T03:36:23.565Z,995.86
2018-08-25T03:37:23.545Z,995.88
2018-08-25T03:38:23.562Z,995.92
2018-08-25T03:39:23.525Z,995.92
2018-08-25T03:40:23.517Z,995.92
2018-08-25T03:41:23.495Z,995.89
2018-08-25T03:42:23.489Z,995.94
2018-08-25T03:43:23.500Z,995.96
2018-08-25T03:44:23.469Z,996.03
2018-08-25T03:45:23.451Z,996.02
2018-08-25T03:46:23.446Z,995.99
2018-08-25T03:47:23.424Z,996.09
2018-08-25T03:48:23.444Z,996.09
2018-08-25T03:49:23.400Z,996.07
2018-08-25T03:50:23.397Z,996.18
2018-08-25T03:51:23.378Z,996.26
2018-08-25T03:52:23.370Z,996.32
2018-08-25T03:53:23.378Z,996.25
2018-08-25T03:54:23.346Z,996.32
2018-08-25T03:55:23.343Z,996.36
2018-08-25T03:56:23.321Z,996.27
2018-08-25T03:57:23.311Z,996.35
2018-08-25T03:58:23.321Z,996.33
2018-08-25T03:59:23.279Z,996.31
2018-08-25T04:00:23.278Z,996.47
2018-08-25T04:01:23.266Z,996.41
2018-08-25T04:02:23.252Z,996.37
2018-08-25T04:03:23.263Z,996.33
2018-08-25T04:04:23.222Z,996.37
2018-08-25T04:05:23.212Z,996.29
2018-08-25T04:06:23.202Z,996.32
2018-08-25T04:07:23.185Z,996.28
2018-08-25T04:08:23.204Z,996.27
2018-08-25T04:09:23.167Z,996.27
2018-08-25T04:10:23.150Z,996.21
2018-08-25T04:11:23.142Z,996.20
2018-08-25T04:12:23.133Z,996.20
2018-08-25T04:13:23.137Z,996.18
2018-08-25T04:14:23.107Z,996.21
2018-08-25T04:15:23.091Z,996.23
2018-08-25T04:16:23.083Z,996.20
2018-08-25T04:17:23.073Z,996.25
2018-08-25T04:18:23.075Z,996.22
2018-08-25T04:19:23.040Z,996.24
2018-08-25T04:20:23.035Z,996.18
2018-08-25T04:21:23.021Z,996.20
2018-08-25T04:22:23.164Z,996.14
2018-08-25T04:23:23.024Z,996.08
2018-08-25T04:24:22.978Z,996.04
2018-08-25T04:25:22.970Z,996.11
2018-08-25T04:26:22.964Z,996.07
2018-08-25T04:27:22.945Z,996.12
2018-08-25T04:28:22.960Z,996.08
2018-08-25T04:29:22.928Z,996.08
2018-08-25T04:30:22.906Z,996.08
2018-08-25T04:31:22.900Z,996.10
2018-08-25T04:32:22.885Z,996.10
2018-08-25T04:33:22.921Z,996.10
2018-08-25T04:34:22.868Z,996.03
2018-08-25T04:35:22.848Z,996.09
2018-08-25T04:36:22.845Z,996.03
2018-08-25T04:37:22.824Z,996.14
2018-08-25T04:38:22.820Z,996.05
2018-08-25T04:39:22.833Z,996.09
2018-08-25T04:40:22.788Z,996.04
2018-08-25T04:41:22.898Z,996.02
2018-08-25T04:42:22.767Z,996.09
2018-08-25T04:43:22.762Z,996.00
2018-08-25T04:44:22.772Z,996.06
2018-08-25T04:45:22.735Z,996.08
2018-08-25T04:46:22.723Z,996.08
2018-08-25T04:47:22.722Z,996.02
2018-08-25T04:48:22.698Z,996.05
2018-08-25T04:49:22.704Z,996.03
2018-08-25T04:50:22.670Z,996.12
2018-08-25T04:51:22.667Z,996.07
2018-08-25T04:52:22.645Z,996.00
2018-08-25T04:53:22.638Z,996.07
2018-08-25T04:54:22.657Z,996.06
2018-08-25T04:55:22.612Z,996.04
2018-08-25T04:56:22.608Z,995.97
2018-08-25T04:57:22.592Z,995.99
2018-08-25T04:58:22.578Z,995.99
2018-08-25T04:59:22.587Z,995.97
2018-08-25T05:00:22.555Z,996.00
2018-08-25T05:01:22.540Z,996.05
2018-08-25T05:02:22.538Z,996.05
2018-08-25T05:03:22.517Z,996.01
2018-08-25T05:04:22.535Z,996.11
2018-08-25T05:05:22.497Z,996.12
2018-08-25T05:06:22.482Z,996.14
2018-08-25T05:07:22.475Z,996.14
2018-08-25T05:08:22.462Z,996.08
2018-08-25T05:09:22.475Z,996.11
2018-08-25T05:10:22.437Z,996.14
2018-08-25T05:11:22.432Z,996.14
2018-08-25T05:12:22.412Z,996.16
2018-08-25T05:13:22.407Z,996.11
2018-08-25T05:14:22.419Z,996.18
2018-08-25T05:15:22.381Z,996.22
2018-08-25T05:16:22.365Z,996.17
2018-08-25T05:17:22.357Z,996.16
2018-08-25T05:18:22.347Z,996.21
2018-08-25T05:19:22.368Z,996.21
2018-08-25T05:20:22.324Z,996.24
2018-08-25T05:21:22.308Z,996.21
2018-08-25T05:22:22.304Z,996.24
2018-08-25T05:23:22.288Z,996.21
2018-08-25T05:24:22.278Z,996.25
2018-08-25T05:25:22.289Z,996.20
2018-08-25T05:26:22.256Z,996.17
2018-08-25T05:27:22.238Z,996.24
2018-08-25T05:28:22.234Z,996.24
2018-08-25T05:29:22.215Z,996.31
2018-08-25T05:30:22.236Z,996.29
2018-08-25T05:31:22.197Z,996.21
2018-08-25T05:32:22.189Z,996.25
2018-08-25T05:33:22.174Z,996.27
2018-08-25T05:34:22.164Z,996.24
2018-08-25T05:35:22.173Z,996.25
2018-08-25T05:36:22.138Z,996.15
2018-08-25T05:37:22.128Z,996.23
2018-08-25T05:38:22.107Z,996.20
2018-08-25T05:39:22.101Z,996.22
2018-08-25T05:40:22.108Z,996.30
2018-08-25T05:41:22.076Z,996.16
2018-08-25T05:42:22.061Z,996.17
2018-08-25T05:43:22.049Z,996.25
2018-08-25T05:44:22.128Z,996.24
2018-08-25T05:45:22.049Z,996.23
2018-08-25T05:46:22.017Z,996.23
2018-08-25T05:47:22.007Z,996.27
2018-08-25T05:48:21.993Z,996.34
2018-08-25T05:49:21.976Z,996.25
2018-08-25T05:50:21.993Z,996.31
2018-08-25T05:51:21.967Z,996.24
2018-08-25T05:52:21.944Z,996.34
2018-08-25T05:53:21.927Z,996.31
2018-08-25T05:54:21.918Z,996.29
2018-08-25T05:55:21.935Z,996.35
2018-08-25T05:56:21.891Z,996.34
2018-08-25T05:57:21.887Z,996.41
2018-08-25T05:58:21.865Z,996.44
2018-08-25T05:59:21.853Z,996.41
2018-08-25T06:00:21.874Z,996.38
2018-08-25T06:01:21.829Z,996.44
2018-08-25T06:02:21.829Z,996.52
2018-08-25T06:03:21.806Z,996.42
2018-08-25T06:04:21.849Z,996.47
2018-08-25T06:05:21.805Z,996.47
2018-08-25T06:06:21.779Z,996.39
2018-08-25T06:07:21.763Z,996.43
2018-08-25T06:08:21.757Z,996.41
2018-08-25T06:09:21.740Z,996.39
2018-08-25T06:10:21.756Z,996.43
2018-08-25T06:11:21.711Z,996.45
2018-08-25T06:12:21.707Z,996.48
2018-08-25T06:13:21.827Z,996.40
2018-08-25T06:14:21.685Z,996.41
2018-08-25T06:15:21.671Z,996.41
2018-08-25T06:16:21.683Z,996.51
2018-08-25T06:17:21.643Z,996.56
2018-08-25T06:18:21.636Z,996.40
2018-08-25T06:19:21.688Z,996.47
2018-08-25T06:20:21.606Z,996.60
2018-08-25T06:21:21.621Z,996.63
2018-08-25T06:22:21.582Z,996.59
2018-08-25T06:23:21.576Z,996.60
2018-08-25T06:24:21.581Z,996.64
2018-08-25T06:25:21.547Z,996.64
2018-08-25T06:26:21.568Z,996.64
2018-08-25T06:27:21.533Z,996.68
2018-08-25T06:28:21.512Z,996.67
2018-08-25T06:29:21.508Z,996.67
2018-08-25T06:30:21.494Z,996.65
2018-08-25T06:31:21.504Z,996.64
2018-08-25T06:32:21.469Z,996.64
2018-08-25T06:33:21.500Z,996.71
2018-08-25T06:34:21.476Z,996.64
2018-08-25T06:35:21.436Z,996.72
2018-08-25T06:36:21.444Z,996.73
2018-08-25T06:37:21.414Z,996.71
2018-08-25T06:38:21.404Z,996.73
2018-08-25T06:39:21.396Z,996.69
2018-08-25T06:40:21.380Z,996.68
2018-08-25T06:41:21.394Z,996.72
2018-08-25T06:42:21.350Z,996.76
2018-08-25T06:43:21.457Z,996.75
2018-08-25T06:44:21.330Z,996.76
2018-08-25T06:45:21.313Z,996.76
2018-08-25T06:46:21.335Z,996.72
2018-08-25T06:47:21.339Z,996.77
2018-08-25T06:48:21.294Z,996.70
2018-08-25T06:49:21.289Z,996.79
2018-08-25T06:50:21.255Z,996.76
2018-08-25T06:51:21.459Z,996.79
2018-08-25T06:52:21.232Z,996.78
2018-08-25T06:53:21.258Z,996.81
2018-08-25T06:54:21.215Z,996.86
2018-08-25T06:55:21.197Z,996.80
2018-08-25T06:56:21.216Z,996.84
2018-08-25T06:57:21.180Z,996.79
2018-08-25T06:58:21.165Z,996.83
2018-08-25T06:59:21.173Z,996.79
2018-08-25T07:00:21.147Z,996.86
2018-08-25T07:01:21.172Z,996.85
2018-08-25T07:02:21.119Z,996.78
2018-08-25T07:03:21.110Z,996.84
2018-08-25T07:04:21.099Z,996.87
2018-08-25T07:05:21.081Z,996.85
2018-08-25T07:06:21.139Z,996.88
2018-08-25T07:07:21.081Z,996.89
2018-08-25T07:08:21.055Z,996.86
2018-08-25T07:09:21.040Z,997.07
2018-08-25T07:10:21.032Z,996.93
2018-08-25T07:11:21.019Z,996.87
2018-08-25T07:12:21.020Z,997.01
2018-08-25T07:13:20.990Z,996.99
2018-08-25T07:14:21.008Z,996.95
2018-08-25T07:15:20.965Z,996.86
2018-08-25T07:16:20.962Z,997.01
2018-08-25T07:17:20.964Z,997.05
2018-08-25T07:18:20.939Z,997.02
2018-08-25T07:19:20.922Z,997.01
2018-08-25T07:20:20.911Z,996.99
2018-08-25T07:21:20.900Z,996.98
2018-08-25T07:22:20.938Z,996.97
2018-08-25T07:23:20.935Z,996.99
2018-08-25T07:24:20.866Z,996.95
2018-08-25T07:25:20.854Z,996.98
2018-08-25T07:26:20.993Z,997.02
2018-08-25T07:27:20.983Z,997.09
2018-08-25T07:28:20.895Z,997.10
2018-08-25T07:29:20.801Z,997.11
2018-08-25T07:30:20.797Z,997.05
2018-08-25T07:31:20.814Z,997.16
2018-08-25T07:32:20.840Z,997.23
2018-08-25T07:33:20.753Z,997.11
2018-08-25T07:34:20.745Z,997.17
2018-08-25T07:35:20.776Z,997.19
2018-08-25T07:36:20.800Z,997.15
2018-08-25T07:37:20.860Z,997.11
2018-08-25T07:38:20.722Z,997.20
2018-08-25T07:39:20.687Z,997.07
2018-08-25T07:40:20.680Z,997.11
2018-08-25T07:41:20.662Z,997.20
2018-08-25T07:42:20.677Z,997.10
2018-08-25T07:43:20.664Z,997.13
2018-08-25T07:44:20.688Z,997.17
2018-08-25T07:45:20.670Z,997.28
2018-08-25T07:46:20.662Z,997.38
2018-08-25T07:47:20.755Z,997.23
2018-08-25T07:48:20.664Z,997.27
2018-08-25T07:49:20.569Z,997.30
2018-08-25T07:50:20.554Z,997.22
2018-08-25T07:51:20.595Z,997.19
2018-08-25T07:52:20.549Z,997.25
2018-08-25T07:53:20.517Z,997.20
2018-08-25T07:54:20.507Z,997.19
2018-08-25T07:55:20.498Z,997.19
2018-08-25T07:56:20.481Z,997.25
2018-08-25T07:57:20.554Z,997.27
2018-08-25T07:58:20.516Z,997.28
2018-08-25T07:59:20.586Z,997.27
2018-08-25T08:00:20.440Z,997.43
2018-08-25T08:01:20.486Z,997.48
2018-08-25T08:02:20.434Z,997.38
2018-08-25T08:03:20.406Z,997.76
2018-08-25T08:04:20.420Z,997.28
2018-08-25T08:05:20.472Z,997.72
2018-08-25T08:06:20.362Z,997.73
2018-08-25T08:07:20.374Z,997.36
2018-08-25T08:08:20.345Z,997.35
2018-08-25T08:09:20.348Z,997.41
2018-08-25T08:10:20.323Z,997.35
2018-08-25T08:11:20.302Z,997.44
2018-08-25T08:12:20.411Z,997.49
2018-08-25T08:13:20.285Z,997.73
2018-08-25T08:14:20.269Z,997.80
2018-08-25T08:15:20.266Z,997.74
2018-08-25T08:16:20.256Z,997.78
2018-08-25T08:17:20.236Z,997.80
2018-08-25T08:18:20.252Z,997.76
2018-08-25T08:19:20.212Z,997.72
2018-08-25T08:20:20.198Z,997.80
2018-08-25T08:21:20.190Z,997.47
2018-08-25T08:22:20.176Z,997.55
2018-08-25T08:23:20.196Z,997.81
2018-08-25T08:24:20.150Z,997.46
2018-08-25T08:25:20.146Z,997.40
2018-08-25T08:26:20.132Z,997.36
2018-08-25T08:27:20.124Z,997.34
2018-08-25T08:28:20.131Z,997.27
2018-08-25T08:29:20.100Z,997.35
2018-08-25T08:30:20.087Z,997.75
2018-08-25T08:31:20.066Z,997.79
2018-08-25T08:32:20.144Z,997.97
2018-08-25T08:33:20.142Z,997.85
2018-08-25T08:34:20.099Z,997.66
2018-08-25T08:35:20.026Z,997.60
2018-08-25T08:36:20.015Z,997.78
2018-08-25T08:37:20.056Z,997.64
2018-08-25T08:38:20.054Z,997.66
2018-08-25T08:39:20.001Z,997.55
2018-08-25T08:40:19.968Z,997.93
2018-08-25T08:41:19.993Z,997.60
2018-08-25T08:42:19.999Z,997.62
2018-08-25T08:43:19.930Z,997.66
2018-08-25T08:44:19.940Z,997.69
2018-08-25T08:45:19.945Z,997.66
2018-08-25T08:46:19.956Z,997.60
2018-08-25T08:47:19.922Z,997.56
2018-08-25T08:48:19.873Z,997.59
2018-08-25T08:49:19.997Z,997.60
2018-08-25T08:50:19.895Z,997.66
2018-08-25T08:51:19.838Z,997.58
2018-08-25T08:52:19.825Z,997.60
2018-08-25T08:53:19.808Z,997.59
2018-08-25T08:54:19.829Z,997.66
2018-08-25T08:55:19.787Z,997.67
2018-08-25T08:56:19.779Z,997.73
2018-08-25T08:57:19.772Z,997.68
2018-08-25T08:58:19.853Z,997.65
2018-08-25T08:59:19.765Z,997.71
2018-08-25T09:00:19.736Z,997.79
2018-08-25T09:01:19.719Z,997.79
2018-08-25T09:02:19.704Z,997.85
2018-08-25T09:03:19.762Z,997.87
2018-08-25T09:04:19.710Z,997.75
2018-08-25T09:05:19.674Z,997.75
2018-08-25T09:06:19.659Z,997.75
2018-08-25T09:07:19.655Z,997.87
2018-08-25T09:08:19.634Z,997.75
2018-08-25T09:09:19.653Z,997.77
2018-08-25T09:10:19.610Z,997.79
2018-08-25T09:11:19.627Z,997.85
2018-08-25T09:12:19.596Z,998.09
2018-08-25T09:13:19.576Z,997.93
2018-08-25T09:14:19.595Z,997.93
2018-08-25T09:15:19.553Z,997.97
2018-08-25T09:16:19.601Z,997.96
2018-08-25T09:17:19.614Z,998.09
2018-08-25T09:18:19.524Z,998.13
2018-08-25T09:19:19.554Z,998.17
2018-08-25T09:20:19.498Z,998.22
2018-08-25T09:21:19.485Z,998.36
2018-08-25T09:22:19.480Z,998.47
2018-08-25T09:23:19.463Z,998.25
2018-08-25T09:24:19.448Z,998.28
2018-08-25T09:25:19.753Z,998.15
2018-08-25T09:26:19.486Z,998.20
2018-08-25T09:27:19.470Z,998.20
2018-08-25T09:28:19.404Z,998.32
2018-08-25T09:29:19.398Z,998.32
2018-08-25T09:30:19.407Z,998.33
2018-08-25T09:31:19.372Z,998.35
2018-08-25T09:32:19.353Z,998.24
2018-08-25T09:33:19.407Z,998.27
2018-08-25T09:34:19.334Z,998.28
2018-08-25T09:35:19.337Z,998.34
2018-08-25T09:36:19.358Z,998.53
2018-08-25T09:37:19.341Z,998.38
2018-08-25T09:38:19.280Z,998.35
2018-08-25T09:39:19.278Z,998.33
2018-08-25T09:40:19.289Z,998.35
2018-08-25T09:41:19.248Z,998.32
2018-08-25T09:42:19.240Z,998.23
2018-08-25T09:43:19.223Z,998.26
2018-08-25T09:44:19.219Z,998.24
2018-08-25T09:45:19.229Z,998.43
2018-08-25T09:46:19.192Z,998.23
2018-08-25T09:47:19.181Z,998.18
2018-08-25T09:48:19.169Z,998.16
2018-08-25T09:49:19.153Z,998.17
2018-08-25T09:50:19.174Z,998.10
2018-08-25T09:51:19.132Z,998.25
2018-08-25T09:52:19.123Z,998.31
2018-08-25T09:53:19.123Z,998.30
2018-08-25T09:54:19.096Z,998.36
2018-08-25T09:55:19.110Z,998.40
2018-08-25T09:56:19.072Z,998.35
2018-08-25T09:57:19.062Z,998.35
2018-08-25T09:58:19.055Z,998.36
2018-08-25T09:59:19.038Z,998.36
2018-08-25T10:00:19.052Z,998.47
2018-08-25T10:01:19.021Z,998.53
2018-08-25T10:02:19.005Z,998.55
2018-08-25T10:03:18.996Z,998.59
2018-08-25T10:04:18.976Z,998.52
2018-08-25T10:05:19.046Z,998.44
2018-08-25T10:06:18.958Z,998.45
2018-08-25T10:07:18.946Z,998.45
2018-08-25T10:08:18.932Z,998.53
2018-08-25T10:09:18.916Z,998.33
2018-08-25T10:10:18.935Z,998.46
2018-08-25T10:11:18.901Z,998.49
2018-08-25T10:12:18.882Z,998.52
2018-08-25T10:13:18.877Z,998.41
2018-08-25T10:14:18.857Z,998.48
2018-08-25T10:15:18.872Z,998.48
2018-08-25T10:16:18.843Z,998.54
2018-08-25T10:17:18.822Z,998.62
2018-08-25T10:18:18.819Z,998.51
2018-08-25T10:19:18.804Z,999.00
2018-08-25T10:20:18.811Z,998.64
2018-08-25T10:21:18.789Z,998.60
2018-08-25T10:22:18.776Z,998.70
2018-08-25T10:23:18.790Z,998.65
2018-08-25T10:24:18.741Z,998.73
2018-08-25T10:25:18.763Z,999.24
2018-08-25T10:26:18.744Z,998.69
2018-08-25T10:27:18.711Z,999.21
2018-08-25T10:28:18.697Z,998.71
2018-08-25T10:29:18.681Z,998.57
2018-08-25T10:30:18.682Z,998.59
2018-08-25T10:31:18.686Z,998.55
2018-08-25T10:32:18.651Z,998.52
2018-08-25T10:33:18.644Z,998.63
2018-08-25T10:34:18.622Z,998.69
2018-08-25T10:35:18.613Z,998.56
2018-08-25T10:36:18.832Z,998.56
2018-08-25T10:37:18.596Z,998.58
2018-08-25T10:38:18.575Z,998.63
2018-08-25T10:39:18.581Z,998.59
2018-08-25T10:40:18.555Z,998.64
2018-08-25T10:41:18.564Z,998.67
2018-08-25T10:42:19.564Z,998.62
2018-08-25T10:43:18.529Z,998.61
2018-08-25T10:44:18.547Z,998.57
2018-08-25T10:45:18.497Z,998.64
2018-08-25T10:46:18.512Z,998.79
2018-08-25T10:47:18.469Z,998.68
2018-08-25T10:48:18.468Z,998.57
2018-08-25T10:49:18.455Z,998.64
2018-08-25T10:50:18.437Z,998.62
2018-08-25T10:51:18.456Z,998.57
2018-08-25T10:52:18.414Z,998.58
2018-08-25T10:53:18.407Z,998.60
2018-08-25T10:54:18.391Z,998.61
2018-08-25T10:55:18.380Z,998.58
2018-08-25T10:56:18.392Z,998.65
2018-08-25T10:57:18.355Z,998.67
2018-08-25T10:58:18.352Z,998.66
2018-08-25T10:59:18.333Z,998.67
2018-08-25T11:00:18.379Z,998.67
2018-08-25T11:01:18.388Z,998.97
2018-08-25T11:02:18.297Z,998.75
2018-08-25T11:03:18.284Z,998.89
2018-08-25T11:04:18.277Z,999.17
2018-08-25T11:05:18.262Z,998.99
2018-08-25T11:06:18.280Z,998.72
2018-08-25T11:07:18.238Z,999.13
2018-08-25T11:08:18.230Z,998.91
2018-08-25T11:09:18.220Z,998.76
2018-08-25T11:10:18.209Z,998.68
2018-08-25T11:11:18.220Z,998.68
2018-08-25T11:12:18.178Z,998.63
2018-08-25T11:13:18.174Z,998.65
2018-08-25T11:14:18.159Z,998.66
2018-08-25T11:15:18.153Z,998.70
2018-08-25T11:16:18.161Z,998.62
2018-08-25T11:17:18.129Z,998.62
2018-08-25T11:18:18.108Z,998.65
2018-08-25T11:19:18.098Z,998.86
2018-08-25T11:20:18.095Z,999.12
2018-08-25T11:21:18.097Z,999.11
2018-08-25T11:22:18.071Z,998.76
2018-08-25T11:23:18.052Z,998.88
2018-08-25T11:24:18.049Z,998.67
2018-08-25T11:25:18.035Z,998.63
2018-08-25T11:26:18.049Z,998.59
2018-08-25T11:27:18.009Z,998.62
2018-08-25T11:28:17.994Z,998.60
2018-08-25T11:29:18.063Z,998.55
2018-08-25T11:30:17.970Z,998.54
2018-08-25T11:31:17.982Z,998.58
2018-08-25T11:32:17.956Z,998.63
2018-08-25T11:33:17.942Z,998.54
2018-08-25T11:34:17.929Z,998.51
2018-08-25T11:35:17.922Z,998.63
2018-08-25T11:36:17.923Z,998.78
2018-08-25T11:37:17.982Z,998.65
2018-08-25T11:38:17.883Z,998.76
2018-08-25T11:39:17.869Z,998.77
2018-08-25T11:40:17.853Z,998.77
2018-08-25T11:41:17.885Z,998.84
2018-08-25T11:42:17.830Z,998.80
2018-08-25T11:43:17.826Z,998.83
2018-08-25T11:44:17.808Z,998.79
2018-08-25T11:45:17.797Z,998.81
2018-08-25T11:46:17.785Z,998.79
2018-08-25T11:47:17.798Z,998.95
2018-08-25T11:48:17.767Z,998.88
2018-08-25T11:49:17.757Z,998.99
2018-08-25T11:50:17.737Z,998.96
2018-08-25T11:51:17.732Z,999.05
2018-08-25T11:52:17.743Z,999.01
2018-08-25T11:53:17.701Z,998.99
2018-08-25T11:54:17.699Z,998.93
2018-08-25T11:55:17.677Z,999.09
2018-08-25T11:56:17.668Z,999.08
2018-08-25T11:57:17.684Z,999.08
2018-08-25T11:58:17.645Z,999.11
2018-08-25T11:59:17.649Z,999.06
2018-08-25T12:00:17.619Z,999.10
2018-08-25T12:01:17.607Z,999.11
2018-08-25T12:02:17.685Z,999.11
2018-08-25T12:03:17.608Z,999.10
2018-08-25T12:04:17.575Z,999.12
2018-08-25T12:05:17.566Z,999.10
2018-08-25T12:06:17.551Z,999.07
2018-08-25T12:07:17.562Z,999.07
2018-08-25T12:08:17.531Z,999.06
2018-08-25T12:09:17.514Z,999.04
2018-08-25T12:10:17.512Z,999.08
2018-08-25T12:11:17.498Z,999.03
2018-08-25T12:12:17.498Z,998.96
2018-08-25T12:13:17.467Z,998.99
2018-08-25T12:14:17.454Z,998.99
2018-08-25T12:15:17.452Z,998.95
2018-08-25T12:16:17.454Z,999.23
2018-08-25T12:17:17.441Z,999.34
2018-08-25T12:18:17.414Z,999.29
2018-08-25T12:19:17.404Z,999.31
2018-08-25T12:20:17.383Z,999.25
2018-08-25T12:21:17.381Z,999.26
2018-08-25T12:22:17.384Z,999.26
2018-08-25T12:23:17.348Z,999.19
2018-08-25T12:24:17.345Z,999.23
2018-08-25T12:25:17.325Z,999.09
2018-08-25T12:26:17.321Z,999.23
2018-08-25T12:27:17.325Z,999.25
2018-08-25T12:28:17.300Z,999.29